Hundvaag 1 weather for Jan 2004
Month no. 199
Obs.
Da.
Temp. Dew Point Precip. Wind
Speed
Wind gusts Cloud cover Press. Humidity Wind dir. Sunny OPT
01.01.2004 1,4   0,0 30,0   0 1016,0 60,0 135,0   35,0 %
02.01.2004 -0,4   0,0 10,0   1 1020,9 57,0 112,5   50,0 %
03.01.2004 1,5   0,0 23,0   0 1017,3 75,0 135,0   40,0 %
04.01.2004 2,2   7,8 1,0   10 1012,7 93,0 112,5 1 75,0 %
05.01.2004 -0,9   0,0 6,0   3 1014,7 83,0     57,5 %
06.01.2004 4,3   2,3 29,0   0 1009,3 81,0 157,5   40,0 %
07.01.2004 4,3   6,1 0,0   3 1009,4 93,0   1 60,0 %
08.01.2004 6,5   0,1 22,0   0 1009,3 81,0 135,0   45,0 %
09.01.2004 5,0   0,0 25,0   0 1002,5 70,0 112,5   45,0 %
10.01.2004 4,2   0,0 18,0   6 1007,9 70,0 135,0 1 62,5 %
11.01.2004 8,0   4,7 23,0   0 997,4 93,0 157,5   45,0 %
12.01.2004 4,0   24,0 6,0   0 992,0 93,0 180,0   35,0 %
13.01.2004 3,5   7,0 8,0   7 990,9 93,0 135,0 1 65,0 %
14.01.2004 1,2   0,0 5,0   2 994,0 87,0 135,0 1 57,5 %
15.01.2004 3,5   0,0 9,0   0 1001,2 75,0 112,5   52,5 %
16.01.2004 2,4   0,2 9,0   10 1000,0 65,0 67,5 1 75,0 %
17.01.2004 -1,6   0,0 0,0   10 1007,5 75,0   1 77,5 %
18.01.2004 0,5   0,0 12,0   0 1014,4 76,0 135,0   47,5 %
19.01.2004 3,3   9,0 6,0   10 1006,6 87,0 337,5 1 72,5 %
20.01.2004 -3,5   0,0 3,0   5 1012,1 83,0   1 62,5 %
21.01.2004 -1,1   0,1 6,0   0 1017,1 69,0 135,0   50,0 %
22.01.2004 0,6   0,0 20,0   0 1014,7 69,0 135,0   42,5 %
23.01.2004 5,4   1,3 13,0   0 1011,6 93,0 180,0   52,5 %
24.01.2004 4,4   7,4 12,0   0 1007,9 93,0 157,5   45,0 %
25.01.2004 4,0   9,5 7,0   1 1010,0 93,0 180,0 1 50,0 %
26.01.2004 3,8   0,1 12,0   0 1010,0 87,0 157,5   50,0 %
27.01.2004 -0,2   4,5 12,0   10 1006,7 69,0 337,5 1 67,5 %
28.01.2004 -2,0   8,0 3,0   0 997,4 91,0   1 47,5 %
29.01.2004 -3,2   0,2 13,0   0 998,6 63,0 22,5 1 42,5 %
30.01.2004 -1,5   0,0 16,0   0 1002,8 69,0 135,0   42,5 %
31.01.2004 -0,1   0,6 8,0   1 998,0 93,0 180,0 1 50,0 %
Avrg/Sum 1,9   92,9 11,8   2,5 1006,8 80,0 150,6 14 52,9 %